sensor_id;sensor_type;location;lat;lon;timestamp;P1;durP1;ratioP1;P2;durP2;ratioP2
10315;SDS011;5203;48.976;8.306;2022-12-07T00:01:27;11.97;;;10.87;;
10315;SDS011;5203;48.976;8.306;2022-12-07T00:03:58;11.73;;;10.63;;
10315;SDS011;5203;48.976;8.306;2022-12-07T00:06:28;12.43;;;11.13;;
10315;SDS011;5203;48.976;8.306;2022-12-07T00:08:55;11.60;;;10.50;;
10315;SDS011;5203;48.976;8.306;2022-12-07T00:11:21;10.90;;;9.90;;
10315;SDS011;5203;48.976;8.306;2022-12-07T00:13:51;11.63;;;10.43;;
10315;SDS011;5203;48.976;8.306;2022-12-07T00:16:22;11.40;;;10.30;;
10315;SDS011;5203;48.976;8.306;2022-12-07T00:18:49;11.60;;;10.50;;
10315;SDS011;5203;48.976;8.306;2022-12-07T00:21:16;11.20;;;10.10;;
10315;SDS011;5203;48.976;8.306;2022-12-07T00:23:42;13.93;;;11.03;;
10315;SDS011;5203;48.976;8.306;2022-12-07T00:26:10;12.70;;;11.40;;
10315;SDS011;5203;48.976;8.306;2022-12-07T00:28:47;12.47;;;11.27;;
10315;SDS011;5203;48.976;8.306;2022-12-07T00:31:18;13.13;;;11.27;;
10315;SDS011;5203;48.976;8.306;2022-12-07T00:33:44;12.80;;;11.50;;
10315;SDS011;5203;48.976;8.306;2022-12-07T00:36:12;11.73;;;10.53;;
10315;SDS011;5203;48.976;8.306;2022-12-07T00:38:40;13.73;;;12.33;;
10315;SDS011;5203;48.976;8.306;2022-12-07T00:41:07;14.13;;;11.70;;
10315;SDS011;5203;48.976;8.306;2022-12-07T00:43:34;13.30;;;11.47;;
10315;SDS011;5203;48.976;8.306;2022-12-07T00:46:00;15.30;;;12.80;;
10315;SDS011;5203;48.976;8.306;2022-12-07T00:48:25;13.37;;;11.97;;
10315;SDS011;5203;48.976;8.306;2022-12-07T00:50:51;12.60;;;11.40;;
10315;SDS011;5203;48.976;8.306;2022-12-07T00:53:17;12.60;;;11.10;;
10315;SDS011;5203;48.976;8.306;2022-12-07T00:55:43;13.47;;;11.23;;
10315;SDS011;5203;48.976;8.306;2022-12-07T00:58:09;12.53;;;11.23;;
10315;SDS011;5203;48.976;8.306;2022-12-07T01:00:36;11.73;;;10.63;;
10315;SDS011;5203;48.976;8.306;2022-12-07T01:03:03;14.70;;;11.87;;
10315;SDS011;5203;48.976;8.306;2022-12-07T01:05:30;12.07;;;10.97;;
10315;SDS011;5203;48.976;8.306;2022-12-07T01:07:56;12.73;;;11.30;;
10315;SDS011;5203;48.976;8.306;2022-12-07T01:10:22;12.27;;;11.07;;
10315;SDS011;5203;48.976;8.306;2022-12-07T01:12:47;14.63;;;12.90;;
10315;SDS011;5203;48.976;8.306;2022-12-07T01:15:13;13.27;;;11.90;;
10315;SDS011;5203;48.976;8.306;2022-12-07T01:17:39;14.70;;;13.20;;
10315;SDS011;5203;48.976;8.306;2022-12-07T01:20:05;13.33;;;12.03;;
10315;SDS011;5203;48.976;8.306;2022-12-07T01:22:31;13.70;;;12.30;;
10315;SDS011;5203;48.976;8.306;2022-12-07T01:25:05;15.97;;;14.27;;
10315;SDS011;5203;48.976;8.306;2022-12-07T01:27:32;14.87;;;13.37;;
10315;SDS011;5203;48.976;8.306;2022-12-07T01:29:59;15.40;;;13.70;;
10315;SDS011;5203;48.976;8.306;2022-12-07T01:32:25;17.93;;;14.03;;
10315;SDS011;5203;48.976;8.306;2022-12-07T01:34:50;15.63;;;13.53;;
10315;SDS011;5203;48.976;8.306;2022-12-07T01:37:16;15.70;;;12.83;;
10315;SDS011;5203;48.976;8.306;2022-12-07T01:39:41;15.33;;;13.73;;
10315;SDS011;5203;48.976;8.306;2022-12-07T01:42:11;14.87;;;13.40;;
10315;SDS011;5203;48.976;8.306;2022-12-07T01:47:40;15.00;;;13.23;;
10315;SDS011;5203;48.976;8.306;2022-12-07T01:50:08;16.43;;;14.73;;
10315;SDS011;5203;48.976;8.306;2022-12-07T01:52:34;16.03;;;13.90;;
10315;SDS011;5203;48.976;8.306;2022-12-07T01:55:06;16.00;;;13.87;;
10315;SDS011;5203;48.976;8.306;2022-12-07T01:57:35;15.33;;;12.97;;
10315;SDS011;5203;48.976;8.306;2022-12-07T02:00:03;15.27;;;12.97;;
10315;SDS011;5203;48.976;8.306;2022-12-07T02:02:53;14.33;;;12.80;;
10315;SDS011;5203;48.976;8.306;2022-12-07T02:05:29;14.17;;;12.73;;
10315;SDS011;5203;48.976;8.306;2022-12-07T02:07:56;12.53;;;11.23;;
10315;SDS011;5203;48.976;8.306;2022-12-07T02:10:24;12.80;;;11.50;;
10315;SDS011;5203;48.976;8.306;2022-12-07T02:12:59;14.33;;;12.73;;
10315;SDS011;5203;48.976;8.306;2022-12-07T02:18:17;13.80;;;12.40;;
10315;SDS011;5203;48.976;8.306;2022-12-07T02:21:07;13.90;;;12.37;;
10315;SDS011;5203;48.976;8.306;2022-12-07T02:23:46;12.63;;;11.33;;
10315;SDS011;5203;48.976;8.306;2022-12-07T02:29:13;12.33;;;10.97;;
10315;SDS011;5203;48.976;8.306;2022-12-07T02:34:29;12.77;;;11.53;;
10315;SDS011;5203;48.976;8.306;2022-12-07T02:36:57;13.50;;;11.27;;
10315;SDS011;5203;48.976;8.306;2022-12-07T02:39:42;12.40;;;11.17;;
10315;SDS011;5203;48.976;8.306;2022-12-07T02:42:17;13.03;;;11.83;;
10315;SDS011;5203;48.976;8.306;2022-12-07T02:44:48;14.53;;;11.90;;
10315;SDS011;5203;48.976;8.306;2022-12-07T02:47:15;13.83;;;12.10;;
10315;SDS011;5203;48.976;8.306;2022-12-07T02:49:44;13.20;;;11.80;;
10315;SDS011;5203;48.976;8.306;2022-12-07T02:52:11;13.40;;;12.00;;
10315;SDS011;5203;48.976;8.306;2022-12-07T02:54:36;15.07;;;11.97;;
10315;SDS011;5203;48.976;8.306;2022-12-07T03:00:08;13.47;;;12.10;;
10315;SDS011;5203;48.976;8.306;2022-12-07T03:05:35;13.40;;;12.00;;
10315;SDS011;5203;48.976;8.306;2022-12-07T03:11:03;17.03;;;12.97;;
10315;SDS011;5203;48.976;8.306;2022-12-07T03:16:26;14.70;;;13.13;;
10315;SDS011;5203;48.976;8.306;2022-12-07T03:21:31;15.77;;;14.10;;
10315;SDS011;5203;48.976;8.306;2022-12-07T03:24:02;16.03;;;13.93;;
10315;SDS011;5203;48.976;8.306;2022-12-07T03:26:36;17.03;;;14.63;;
10315;SDS011;5203;48.976;8.306;2022-12-07T03:29:07;17.87;;;14.57;;
10315;SDS011;5203;48.976;8.306;2022-12-07T03:31:45;15.50;;;13.90;;
10315;SDS011;5203;48.976;8.306;2022-12-07T03:34:31;16.13;;;14.33;;
10315;SDS011;5203;48.976;8.306;2022-12-07T03:37:05;15.00;;;13.23;;
10315;SDS011;5203;48.976;8.306;2022-12-07T03:40:11;17.20;;;13.53;;
10315;SDS011;5203;48.976;8.306;2022-12-07T03:42:39;16.30;;;14.07;;
10315;SDS011;5203;48.976;8.306;2022-12-07T03:45:05;17.43;;;13.90;;
10315;SDS011;5203;48.976;8.306;2022-12-07T03:50:32;17.87;;;13.13;;
10315;SDS011;5203;48.976;8.306;2022-12-07T03:53:36;13.90;;;12.47;;
10315;SDS011;5203;48.976;8.306;2022-12-07T03:56:05;13.03;;;11.63;;
10315;SDS011;5203;48.976;8.306;2022-12-07T03:58:33;12.13;;;10.93;;
10315;SDS011;5203;48.976;8.306;2022-12-07T04:01:00;13.13;;;11.53;;
10315;SDS011;5203;48.976;8.306;2022-12-07T04:03:26;13.77;;;12.27;;
10315;SDS011;5203;48.976;8.306;2022-12-07T04:05:52;14.03;;;12.57;;
10315;SDS011;5203;48.976;8.306;2022-12-07T04:08:18;13.40;;;12.00;;
10315;SDS011;5203;48.976;8.306;2022-12-07T04:10:44;14.50;;;13.00;;
10315;SDS011;5203;48.976;8.306;2022-12-07T04:13:09;16.10;;;12.07;;
10315;SDS011;5203;48.976;8.306;2022-12-07T04:15:35;14.93;;;13.00;;
10315;SDS011;5203;48.976;8.306;2022-12-07T04:18:01;15.93;;;13.60;;
10315;SDS011;5203;48.976;8.306;2022-12-07T04:20:26;15.03;;;13.53;;
10315;SDS011;5203;48.976;8.306;2022-12-07T04:22:52;16.03;;;13.40;;
10315;SDS011;5203;48.976;8.306;2022-12-07T04:25:18;15.10;;;13.50;;
10315;SDS011;5203;48.976;8.306;2022-12-07T04:27:43;17.50;;;14.33;;
10315;SDS011;5203;48.976;8.306;2022-12-07T04:30:09;14.60;;;13.07;;
10315;SDS011;5203;48.976;8.306;2022-12-07T04:32:35;15.93;;;14.07;;
10315;SDS011;5203;48.976;8.306;2022-12-07T04:35:00;17.27;;;14.20;;
10315;SDS011;5203;48.976;8.306;2022-12-07T04:37:26;16.00;;;14.30;;
10315;SDS011;5203;48.976;8.306;2022-12-07T04:39:51;17.93;;;14.13;;
10315;SDS011;5203;48.976;8.306;2022-12-07T04:42:17;17.73;;;13.90;;
10315;SDS011;5203;48.976;8.306;2022-12-07T04:44:43;16.00;;;13.93;;
10315;SDS011;5203;48.976;8.306;2022-12-07T04:47:09;16.50;;;14.63;;
10315;SDS011;5203;48.976;8.306;2022-12-07T04:49:35;15.80;;;14.10;;
10315;SDS011;5203;48.976;8.306;2022-12-07T04:52:00;16.73;;;14.97;;
10315;SDS011;5203;48.976;8.306;2022-12-07T04:54:26;15.50;;;13.90;;
10315;SDS011;5203;48.976;8.306;2022-12-07T04:56:52;17.53;;;14.53;;
10315;SDS011;5203;48.976;8.306;2022-12-07T04:59:17;14.87;;;13.33;;
10315;SDS011;5203;48.976;8.306;2022-12-07T05:01:43;15.87;;;14.07;;
10315;SDS011;5203;48.976;8.306;2022-12-07T05:04:09;18.03;;;14.50;;
10315;SDS011;5203;48.976;8.306;2022-12-07T05:06:35;16.43;;;14.03;;
10315;SDS011;5203;48.976;8.306;2022-12-07T05:09:01;16.10;;;14.40;;
10315;SDS011;5203;48.976;8.306;2022-12-07T05:11:27;16.80;;;14.23;;
10315;SDS011;5203;48.976;8.306;2022-12-07T05:16:39;14.63;;;12.67;;
10315;SDS011;5203;48.976;8.306;2022-12-07T05:19:06;17.80;;;14.20;;
10315;SDS011;5203;48.976;8.306;2022-12-07T05:21:33;15.43;;;13.27;;
10315;SDS011;5203;48.976;8.306;2022-12-07T05:23:59;15.20;;;13.60;;
10315;SDS011;5203;48.976;8.306;2022-12-07T05:26:24;16.40;;;13.20;;
10315;SDS011;5203;48.976;8.306;2022-12-07T05:28:51;16.73;;;13.57;;
10315;SDS011;5203;48.976;8.306;2022-12-07T05:31:17;16.67;;;13.90;;
10315;SDS011;5203;48.976;8.306;2022-12-07T05:33:43;16.20;;;14.33;;
10315;SDS011;5203;48.976;8.306;2022-12-07T05:36:09;15.00;;;13.10;;
10315;SDS011;5203;48.976;8.306;2022-12-07T05:38:34;14.90;;;13.33;;
10315;SDS011;5203;48.976;8.306;2022-12-07T05:41:01;15.43;;;13.87;;
10315;SDS011;5203;48.976;8.306;2022-12-07T05:43:27;16.50;;;14.77;;
10315;SDS011;5203;48.976;8.306;2022-12-07T05:45:53;15.53;;;13.50;;
10315;SDS011;5203;48.976;8.306;2022-12-07T05:48:19;14.97;;;13.47;;
10315;SDS011;5203;48.976;8.306;2022-12-07T05:50:47;15.00;;;13.07;;
10315;SDS011;5203;48.976;8.306;2022-12-07T05:53:13;14.83;;;13.33;;
10315;SDS011;5203;48.976;8.306;2022-12-07T05:55:39;17.40;;;13.77;;
10315;SDS011;5203;48.976;8.306;2022-12-07T05:58:04;17.27;;;13.93;;
10315;SDS011;5203;48.976;8.306;2022-12-07T06:00:49;15.40;;;13.80;;
10315;SDS011;5203;48.976;8.306;2022-12-07T06:03:14;18.43;;;14.10;;
10315;SDS011;5203;48.976;8.306;2022-12-07T06:05:40;17.77;;;14.93;;
10315;SDS011;5203;48.976;8.306;2022-12-07T06:08:06;17.27;;;14.53;;
10315;SDS011;5203;48.976;8.306;2022-12-07T06:10:32;19.17;;;15.40;;
10315;SDS011;5203;48.976;8.306;2022-12-07T06:12:58;16.70;;;14.67;;
10315;SDS011;5203;48.976;8.306;2022-12-07T06:15:23;18.13;;;14.17;;
10315;SDS011;5203;48.976;8.306;2022-12-07T06:17:49;15.83;;;14.17;;
10315;SDS011;5203;48.976;8.306;2022-12-07T06:20:15;20.93;;;14.50;;
10315;SDS011;5203;48.976;8.306;2022-12-07T06:22:40;16.20;;;14.07;;
10315;SDS011;5203;48.976;8.306;2022-12-07T06:25:06;16.83;;;14.43;;
10315;SDS011;5203;48.976;8.306;2022-12-07T06:27:32;16.83;;;13.33;;
10315;SDS011;5203;48.976;8.306;2022-12-07T06:29:58;15.67;;;13.97;;
10315;SDS011;5203;48.976;8.306;2022-12-07T06:32:25;15.30;;;13.70;;
10315;SDS011;5203;48.976;8.306;2022-12-07T06:34:51;15.17;;;13.57;;
10315;SDS011;5203;48.976;8.306;2022-12-07T06:37:17;15.40;;;13.77;;
10315;SDS011;5203;48.976;8.306;2022-12-07T06:39:42;15.43;;;12.93;;
10315;SDS011;5203;48.976;8.306;2022-12-07T06:42:08;17.13;;;14.00;;
10315;SDS011;5203;48.976;8.306;2022-12-07T06:44:34;16.30;;;14.53;;
10315;SDS011;5203;48.976;8.306;2022-12-07T06:46:59;14.83;;;13.30;;
10315;SDS011;5203;48.976;8.306;2022-12-07T06:49:25;16.93;;;14.23;;
10315;SDS011;5203;48.976;8.306;2022-12-07T06:51:51;15.27;;;13.30;;
10315;SDS011;5203;48.976;8.306;2022-12-07T06:54:16;15.87;;;14.00;;
10315;SDS011;5203;48.976;8.306;2022-12-07T06:56:42;17.33;;;14.20;;
10315;SDS011;5203;48.976;8.306;2022-12-07T06:59:08;15.57;;;13.10;;
10315;SDS011;5203;48.976;8.306;2022-12-07T07:01:35;15.87;;;13.43;;
10315;SDS011;5203;48.976;8.306;2022-12-07T07:04:01;18.67;;;13.40;;
10315;SDS011;5203;48.976;8.306;2022-12-07T07:06:26;18.17;;;13.93;;
10315;SDS011;5203;48.976;8.306;2022-12-07T07:08:52;14.60;;;12.37;;
10315;SDS011;5203;48.976;8.306;2022-12-07T07:11:20;15.53;;;13.70;;
10315;SDS011;5203;48.976;8.306;2022-12-07T07:13:46;18.27;;;14.50;;
10315;SDS011;5203;48.976;8.306;2022-12-07T07:16:12;14.30;;;12.83;;
10315;SDS011;5203;48.976;8.306;2022-12-07T07:18:37;14.90;;;13.23;;
10315;SDS011;5203;48.976;8.306;2022-12-07T07:21:03;16.03;;;13.43;;
10315;SDS011;5203;48.976;8.306;2022-12-07T07:23:29;14.23;;;12.73;;
10315;SDS011;5203;48.976;8.306;2022-12-07T07:25:55;15.90;;;12.80;;
10315;SDS011;5203;48.976;8.306;2022-12-07T07:28:21;13.80;;;12.37;;
10315;SDS011;5203;48.976;8.306;2022-12-07T07:30:47;13.33;;;11.60;;
10315;SDS011;5203;48.976;8.306;2022-12-07T07:33:13;13.80;;;11.73;;
10315;SDS011;5203;48.976;8.306;2022-12-07T07:35:38;16.33;;;13.23;;
10315;SDS011;5203;48.976;8.306;2022-12-07T07:38:04;16.77;;;13.07;;
10315;SDS011;5203;48.976;8.306;2022-12-07T07:40:30;15.70;;;13.33;;
10315;SDS011;5203;48.976;8.306;2022-12-07T07:42:56;16.57;;;14.33;;
10315;SDS011;5203;48.976;8.306;2022-12-07T07:45:24;15.03;;;13.40;;
10315;SDS011;5203;48.976;8.306;2022-12-07T07:47:50;14.57;;;12.70;;
10315;SDS011;5203;48.976;8.306;2022-12-07T07:50:16;16.03;;;12.57;;
10315;SDS011;5203;48.976;8.306;2022-12-07T07:52:42;15.50;;;12.87;;
10315;SDS011;5203;48.976;8.306;2022-12-07T07:55:09;18.67;;;13.43;;
10315;SDS011;5203;48.976;8.306;2022-12-07T07:57:35;15.10;;;13.00;;
10315;SDS011;5203;48.976;8.306;2022-12-07T08:00:04;15.83;;;12.97;;
10315;SDS011;5203;48.976;8.306;2022-12-07T08:02:31;14.23;;;12.73;;
10315;SDS011;5203;48.976;8.306;2022-12-07T08:04:56;16.10;;;13.03;;
10315;SDS011;5203;48.976;8.306;2022-12-07T08:07:22;14.40;;;12.77;;
10315;SDS011;5203;48.976;8.306;2022-12-07T08:09:47;13.83;;;12.37;;
10315;SDS011;5203;48.976;8.306;2022-12-07T08:12:13;15.33;;;12.93;;
10315;SDS011;5203;48.976;8.306;2022-12-07T08:14:39;15.37;;;12.57;;
10315;SDS011;5203;48.976;8.306;2022-12-07T08:17:04;15.17;;;12.23;;
10315;SDS011;5203;48.976;8.306;2022-12-07T08:19:30;14.20;;;12.37;;
10315;SDS011;5203;48.976;8.306;2022-12-07T08:21:56;13.73;;;11.47;;
10315;SDS011;5203;48.976;8.306;2022-12-07T08:24:22;14.40;;;11.83;;
10315;SDS011;5203;48.976;8.306;2022-12-07T08:26:48;14.80;;;11.40;;
10315;SDS011;5203;48.976;8.306;2022-12-07T08:29:15;13.73;;;11.67;;
10315;SDS011;5203;48.976;8.306;2022-12-07T08:31:40;14.20;;;11.27;;
10315;SDS011;5203;48.976;8.306;2022-12-07T08:34:06;12.87;;;11.47;;
10315;SDS011;5203;48.976;8.306;2022-12-07T08:36:32;12.70;;;11.33;;
10315;SDS011;5203;48.976;8.306;2022-12-07T08:38:58;14.07;;;11.37;;
10315;SDS011;5203;48.976;8.306;2022-12-07T08:41:23;13.50;;;10.70;;
10315;SDS011;5203;48.976;8.306;2022-12-07T08:43:50;16.60;;;12.53;;
10315;SDS011;5203;48.976;8.306;2022-12-07T08:46:24;13.00;;;11.47;;
10315;SDS011;5203;48.976;8.306;2022-12-07T08:51:24;11.97;;;10.77;;
10315;SDS011;5203;48.976;8.306;2022-12-07T08:53:50;13.93;;;11.57;;
10315;SDS011;5203;48.976;8.306;2022-12-07T08:56:19;12.90;;;11.10;;
10315;SDS011;5203;48.976;8.306;2022-12-07T08:58:45;12.67;;;10.77;;
10315;SDS011;5203;48.976;8.306;2022-12-07T09:01:11;11.20;;;9.83;;
10315;SDS011;5203;48.976;8.306;2022-12-07T09:03:36;14.57;;;11.50;;
10315;SDS011;5203;48.976;8.306;2022-12-07T09:06:02;12.80;;;11.27;;
10315;SDS011;5203;48.976;8.306;2022-12-07T09:08:33;11.67;;;10.47;;
10315;SDS011;5203;48.976;8.306;2022-12-07T09:11:02;13.87;;;10.60;;
10315;SDS011;5203;48.976;8.306;2022-12-07T09:13:28;13.50;;;11.57;;
10315;SDS011;5203;48.976;8.306;2022-12-07T09:15:54;12.83;;;11.50;;
10315;SDS011;5203;48.976;8.306;2022-12-07T09:18:19;16.30;;;11.70;;
10315;SDS011;5203;48.976;8.306;2022-12-07T09:20:45;13.13;;;11.13;;
10315;SDS011;5203;48.976;8.306;2022-12-07T09:23:10;14.20;;;12.10;;
10315;SDS011;5203;48.976;8.306;2022-12-07T09:25:36;12.90;;;11.53;;
10315;SDS011;5203;48.976;8.306;2022-12-07T09:28:02;14.23;;;11.73;;
10315;SDS011;5203;48.976;8.306;2022-12-07T09:30:27;13.07;;;11.67;;
10315;SDS011;5203;48.976;8.306;2022-12-07T09:32:54;13.63;;;12.03;;
10315;SDS011;5203;48.976;8.306;2022-12-07T09:35:21;12.10;;;10.83;;
10315;SDS011;5203;48.976;8.306;2022-12-07T09:37:48;13.90;;;11.70;;
10315;SDS011;5203;48.976;8.306;2022-12-07T09:40:14;15.13;;;11.93;;
10315;SDS011;5203;48.976;8.306;2022-12-07T09:42:42;12.70;;;11.40;;
10315;SDS011;5203;48.976;8.306;2022-12-07T09:45:32;14.93;;;12.20;;
10315;SDS011;5203;48.976;8.306;2022-12-07T09:48:00;12.43;;;11.10;;
10315;SDS011;5203;48.976;8.306;2022-12-07T09:50:28;14.73;;;11.90;;
10315;SDS011;5203;48.976;8.306;2022-12-07T09:52:55;13.73;;;12.23;;
10315;SDS011;5203;48.976;8.306;2022-12-07T09:55:33;12.07;;;10.70;;
10315;SDS011;5203;48.976;8.306;2022-12-07T09:58:01;13.87;;;12.13;;
10315;SDS011;5203;48.976;8.306;2022-12-07T10:00:26;14.40;;;11.67;;
10315;SDS011;5203;48.976;8.306;2022-12-07T10:02:57;12.83;;;10.97;;
10315;SDS011;5203;48.976;8.306;2022-12-07T10:05:26;13.13;;;11.70;;
10315;SDS011;5203;48.976;8.306;2022-12-07T10:07:55;12.37;;;11.07;;
10315;SDS011;5203;48.976;8.306;2022-12-07T10:10:29;13.17;;;11.80;;
10315;SDS011;5203;48.976;8.306;2022-12-07T10:13:10;13.77;;;10.63;;
10315;SDS011;5203;48.976;8.306;2022-12-07T10:18:13;13.50;;;11.17;;
10315;SDS011;5203;48.976;8.306;2022-12-07T10:20:46;12.83;;;10.47;;
10315;SDS011;5203;48.976;8.306;2022-12-07T10:23:17;15.27;;;10.70;;
10315;SDS011;5203;48.976;8.306;2022-12-07T10:25:43;13.97;;;11.33;;
10315;SDS011;5203;48.976;8.306;2022-12-07T10:28:18;12.93;;;11.43;;
10315;SDS011;5203;48.976;8.306;2022-12-07T10:30:55;13.87;;;11.37;;
10315;SDS011;5203;48.976;8.306;2022-12-07T10:35:57;13.00;;;10.67;;
10315;SDS011;5203;48.976;8.306;2022-12-07T10:38:24;15.40;;;11.67;;
10315;SDS011;5203;48.976;8.306;2022-12-07T10:41:05;14.47;;;12.13;;
10315;SDS011;5203;48.976;8.306;2022-12-07T10:43:31;12.00;;;10.77;;
10315;SDS011;5203;48.976;8.306;2022-12-07T10:55:07;15.70;;;10.97;;
10315;SDS011;5203;48.976;8.306;2022-12-07T11:01:22;11.60;;;10.40;;
10315;SDS011;5203;48.976;8.306;2022-12-07T11:06:38;17.83;;;11.23;;
10315;SDS011;5203;48.976;8.306;2022-12-07T11:12:16;14.67;;;11.67;;
10315;SDS011;5203;48.976;8.306;2022-12-07T11:17:32;12.40;;;11.00;;
10315;SDS011;5203;48.976;8.306;2022-12-07T11:25:24;13.33;;;11.93;;
10315;SDS011;5203;48.976;8.306;2022-12-07T11:30:49;14.07;;;12.57;;
10315;SDS011;5203;48.976;8.306;2022-12-07T11:33:41;13.90;;;11.77;;
10315;SDS011;5203;48.976;8.306;2022-12-07T11:39:26;14.93;;;12.17;;
10315;SDS011;5203;48.976;8.306;2022-12-07T11:45:25;16.87;;;13.43;;
10315;SDS011;5203;48.976;8.306;2022-12-07T11:47:54;16.27;;;13.53;;
10315;SDS011;5203;48.976;8.306;2022-12-07T11:50:30;15.80;;;12.63;;
10315;SDS011;5203;48.976;8.306;2022-12-07T11:53:32;14.37;;;11.97;;
10315;SDS011;5203;48.976;8.306;2022-12-07T11:56:14;13.77;;;11.63;;
10315;SDS011;5203;48.976;8.306;2022-12-07T12:03:43;15.63;;;12.57;;
10315;SDS011;5203;48.976;8.306;2022-12-07T12:06:14;13.93;;;12.63;;
10315;SDS011;5203;48.976;8.306;2022-12-07T12:09:03;14.60;;;12.10;;
10315;SDS011;5203;48.976;8.306;2022-12-07T12:17:28;15.07;;;12.93;;
10315;SDS011;5203;48.976;8.306;2022-12-07T12:22:43;15.93;;;13.00;;
10315;SDS011;5203;48.976;8.306;2022-12-07T12:25:36;15.40;;;12.57;;
10315;SDS011;5203;48.976;8.306;2022-12-07T12:28:05;18.17;;;12.80;;
10315;SDS011;5203;48.976;8.306;2022-12-07T12:30:32;16.40;;;12.80;;
10315;SDS011;5203;48.976;8.306;2022-12-07T12:33:04;16.23;;;12.97;;
10315;SDS011;5203;48.976;8.306;2022-12-07T12:36:16;17.83;;;13.33;;
10315;SDS011;5203;48.976;8.306;2022-12-07T12:54:23;13.77;;;12.17;;
10315;SDS011;5203;48.976;8.306;2022-12-07T13:01:56;14.60;;;11.83;;
10315;SDS011;5203;48.976;8.306;2022-12-07T13:13:03;14.73;;;11.53;;
10315;SDS011;5203;48.976;8.306;2022-12-07T13:15:39;13.23;;;11.50;;
10315;SDS011;5203;48.976;8.306;2022-12-07T13:24:05;14.17;;;11.87;;
10315;SDS011;5203;48.976;8.306;2022-12-07T13:31:43;16.33;;;12.73;;
10315;SDS011;5203;48.976;8.306;2022-12-07T13:34:28;14.00;;;11.43;;
10315;SDS011;5203;48.976;8.306;2022-12-07T13:37:02;14.97;;;12.30;;
10315;SDS011;5203;48.976;8.306;2022-12-07T13:39:46;13.40;;;11.47;;
10315;SDS011;5203;48.976;8.306;2022-12-07T13:42:33;13.47;;;11.77;;
10315;SDS011;5203;48.976;8.306;2022-12-07T13:45:00;14.97;;;11.97;;
10315;SDS011;5203;48.976;8.306;2022-12-07T13:47:49;15.33;;;12.63;;
10315;SDS011;5203;48.976;8.306;2022-12-07T13:52:55;13.17;;;11.83;;
10315;SDS011;5203;48.976;8.306;2022-12-07T13:55:26;14.63;;;12.20;;
10315;SDS011;5203;48.976;8.306;2022-12-07T13:57:53;13.37;;;11.73;;
10315;SDS011;5203;48.976;8.306;2022-12-07T14:00:23;12.93;;;10.73;;
10315;SDS011;5203;48.976;8.306;2022-12-07T14:03:00;13.43;;;11.07;;
10315;SDS011;5203;48.976;8.306;2022-12-07T14:05:27;11.13;;;9.93;;
10315;SDS011;5203;48.976;8.306;2022-12-07T14:07:58;12.00;;;10.30;;
10315;SDS011;5203;48.976;8.306;2022-12-07T14:13:01;14.33;;;11.37;;
10315;SDS011;5203;48.976;8.306;2022-12-07T14:15:29;12.30;;;11.10;;
10315;SDS011;5203;48.976;8.306;2022-12-07T14:17:58;12.80;;;10.77;;
10315;SDS011;5203;48.976;8.306;2022-12-07T14:20:33;12.73;;;11.40;;
10315;SDS011;5203;48.976;8.306;2022-12-07T14:22:59;12.27;;;10.87;;
10315;SDS011;5203;48.976;8.306;2022-12-07T14:25:33;13.40;;;10.43;;
10315;SDS011;5203;48.976;8.306;2022-12-07T14:28:32;12.47;;;11.17;;
10315;SDS011;5203;48.976;8.306;2022-12-07T14:31:00;10.93;;;8.87;;
10315;SDS011;5203;48.976;8.306;2022-12-07T14:33:27;11.03;;;9.93;;
10315;SDS011;5203;48.976;8.306;2022-12-07T14:35:53;12.97;;;10.27;;
10315;SDS011;5203;48.976;8.306;2022-12-07T14:38:20;11.70;;;10.17;;
10315;SDS011;5203;48.976;8.306;2022-12-07T14:40:46;12.27;;;9.93;;
10315;SDS011;5203;48.976;8.306;2022-12-07T14:43:14;11.00;;;9.77;;
10315;SDS011;5203;48.976;8.306;2022-12-07T14:45:41;12.77;;;10.07;;
10315;SDS011;5203;48.976;8.306;2022-12-07T14:48:07;11.87;;;10.53;;
10315;SDS011;5203;48.976;8.306;2022-12-07T14:50:37;11.27;;;9.73;;
10315;SDS011;5203;48.976;8.306;2022-12-07T14:53:13;13.07;;;9.47;;
10315;SDS011;5203;48.976;8.306;2022-12-07T14:55:40;9.97;;;8.43;;
10315;SDS011;5203;48.976;8.306;2022-12-07T14:58:09;11.83;;;9.40;;
10315;SDS011;5203;48.976;8.306;2022-12-07T15:00:41;10.03;;;8.90;;
10315;SDS011;5203;48.976;8.306;2022-12-07T15:03:07;10.73;;;9.40;;
10315;SDS011;5203;48.976;8.306;2022-12-07T15:05:33;12.77;;;11.43;;
10315;SDS011;5203;48.976;8.306;2022-12-07T15:07:59;10.50;;;9.47;;
10315;SDS011;5203;48.976;8.306;2022-12-07T15:10:26;12.57;;;10.10;;
10315;SDS011;5203;48.976;8.306;2022-12-07T15:12:55;13.33;;;10.17;;
10315;SDS011;5203;48.976;8.306;2022-12-07T15:15:40;11.00;;;9.90;;
10315;SDS011;5203;48.976;8.306;2022-12-07T15:18:06;11.67;;;10.47;;
10315;SDS011;5203;48.976;8.306;2022-12-07T15:20:31;11.20;;;10.10;;
10315;SDS011;5203;48.976;8.306;2022-12-07T15:22:57;11.53;;;10.30;;
10315;SDS011;5203;48.976;8.306;2022-12-07T15:25:22;12.33;;;9.80;;
10315;SDS011;5203;48.976;8.306;2022-12-07T15:27:48;10.90;;;9.20;;
10315;SDS011;5203;48.976;8.306;2022-12-07T15:30:14;11.97;;;10.13;;
10315;SDS011;5203;48.976;8.306;2022-12-07T15:32:39;10.60;;;9.13;;
10315;SDS011;5203;48.976;8.306;2022-12-07T15:35:05;11.77;;;9.90;;
10315;SDS011;5203;48.976;8.306;2022-12-07T15:37:31;11.80;;;9.67;;
10315;SDS011;5203;48.976;8.306;2022-12-07T15:39:56;11.57;;;9.37;;
10315;SDS011;5203;48.976;8.306;2022-12-07T15:42:22;11.53;;;10.43;;
10315;SDS011;5203;48.976;8.306;2022-12-07T15:44:48;11.87;;;10.20;;
10315;SDS011;5203;48.976;8.306;2022-12-07T15:47:28;11.80;;;10.47;;
10315;SDS011;5203;48.976;8.306;2022-12-07T15:49:59;16.53;;;11.60;;
10315;SDS011;5203;48.976;8.306;2022-12-07T15:52:25;12.97;;;10.63;;
10315;SDS011;5203;48.976;8.306;2022-12-07T15:54:51;13.43;;;11.20;;
10315;SDS011;5203;48.976;8.306;2022-12-07T15:57:16;13.20;;;11.67;;
10315;SDS011;5203;48.976;8.306;2022-12-07T15:59:42;13.57;;;10.73;;
10315;SDS011;5203;48.976;8.306;2022-12-07T16:02:09;14.30;;;12.10;;
10315;SDS011;5203;48.976;8.306;2022-12-07T16:04:35;13.07;;;11.67;;
10315;SDS011;5203;48.976;8.306;2022-12-07T16:07:01;14.83;;;11.83;;
10315;SDS011;5203;48.976;8.306;2022-12-07T16:09:27;13.70;;;11.93;;
10315;SDS011;5203;48.976;8.306;2022-12-07T16:11:53;13.63;;;11.63;;
10315;SDS011;5203;48.976;8.306;2022-12-07T16:14:19;13.10;;;11.63;;
10315;SDS011;5203;48.976;8.306;2022-12-07T16:16:45;14.03;;;11.57;;
10315;SDS011;5203;48.976;8.306;2022-12-07T16:19:10;12.87;;;11.27;;
10315;SDS011;5203;48.976;8.306;2022-12-07T16:21:36;15.50;;;10.90;;
10315;SDS011;5203;48.976;8.306;2022-12-07T16:24:02;13.43;;;12.00;;
10315;SDS011;5203;48.976;8.306;2022-12-07T16:26:28;14.33;;;11.70;;
10315;SDS011;5203;48.976;8.306;2022-12-07T16:28:54;12.53;;;11.23;;
10315;SDS011;5203;48.976;8.306;2022-12-07T16:31:23;14.03;;;11.63;;
10315;SDS011;5203;48.976;8.306;2022-12-07T16:33:54;13.23;;;11.33;;
10315;SDS011;5203;48.976;8.306;2022-12-07T16:36:22;13.73;;;11.53;;
10315;SDS011;5203;48.976;8.306;2022-12-07T16:38:49;12.90;;;10.30;;
10315;SDS011;5203;48.976;8.306;2022-12-07T16:41:15;13.13;;;11.07;;
10315;SDS011;5203;48.976;8.306;2022-12-07T16:43:41;12.50;;;11.20;;
10315;SDS011;5203;48.976;8.306;2022-12-07T16:46:06;14.37;;;11.87;;
10315;SDS011;5203;48.976;8.306;2022-12-07T16:48:36;14.57;;;12.17;;
10315;SDS011;5203;48.976;8.306;2022-12-07T16:51:04;15.67;;;12.37;;
10315;SDS011;5203;48.976;8.306;2022-12-07T16:53:31;14.80;;;11.87;;
10315;SDS011;5203;48.976;8.306;2022-12-07T16:55:57;17.10;;;12.00;;
10315;SDS011;5203;48.976;8.306;2022-12-07T16:58:22;17.60;;;12.90;;
10315;SDS011;5203;48.976;8.306;2022-12-07T17:00:48;16.07;;;13.37;;